Overview Statistics Trail Chart Weather Telemetry Raw packets
 

This is the latest recevied weather packets stored in our database for station/object WX5RP. If no packets are shown the sender has not sent any weather packets the latest 10 day(s).

<< 44 45 46 47 48 49 50 >>
Time Temp. Humidity Pressure Rain* Wind** Luminosity Snow
1777311317 10° C 41% 1015.7 hPa 0 mm - 914 W/m² -
1777310717 9.44° C 44% 1016.3 hPa 0 mm - 812 W/m² -
1777310117 8.89° C 49% 1016.4 hPa 0 mm - 769 W/m² -
1777309516 8.33° C 50% 1015.7 hPa 0 mm - 759 W/m² -
1777308918 7.22° C 57% 1015.9 hPa 0 mm - 669 W/m² -
1777308316 6.67° C 59% 1015.9 hPa 0 mm - 198 W/m² -
1777307717 7.22° C 56% 1015.7 hPa 0 mm - 175 W/m² -
1777307116 7.78° C 56% 1015.6 hPa 0 mm - 283 W/m² -
1777306517 7.22° C 57% 1015.6 hPa 0 mm - 459 W/m² -
1777305916 6.67° C 60% 1015.6 hPa 0 mm - 664 W/m² -
1777305316 5.56° C 63% 1015.8 hPa 0 mm - 554 W/m² -
1777304717 4.44° C 67% 1015.8 hPa 0 mm - 520 W/m² -
1777304117 3.33° C 70% 1016.1 hPa 0 mm - 489 W/m² -
1777303517 2.78° C 72% 1016.4 hPa 0 mm - 170 W/m² -
1777302916 2.22° C 75% 1016.4 hPa 0 mm - 172 W/m² -
1777302316 1.67° C 78% 1014.8 hPa 0 mm - 168 W/m² -
1777301716 1.11° C 80% 1014.8 hPa 0 mm - 201 W/m² -
1777301116 0.56° C 80% 1015.1 hPa 0 mm - 133 W/m² -
1777300516 0° C 81% 1015.3 hPa 0 mm - 115 W/m² -
1777299917 -0.56° C 82% 1015.4 hPa 0 mm - 91 W/m² -
1777299316 -0.56° C 82% 1015.4 hPa 0 mm - 70 W/m² -
1777298716 -1.11° C 83% 1014.6 hPa 0 mm - 51 W/m² -
1777298116 -1.11° C 83% 1014.6 hPa 0 mm - 36 W/m² -
1777297516 -2.22° C 84% 1014.3 hPa 0 mm - 24 W/m² -
1777296916 -2.78° C 84% 1014.5 hPa 0 mm - 13 W/m² -

* Rain latest hour (hover to see other rain measurements)
** Current wind speed in m/s (hover to see current wind gust speed)